Time;durP1;ratioP1;P1;durP2;ratioP2;P2;SDS_P1;SDS_P2;PMS_P1;PMS_P2;Temp;Humidity;BMP_temperature;BMP_pressure;BME280_temperature;BME280_humidity;BME280_pressure;Samples;Min_cycle;Max_cycle;Signal;HPM_P1;HPM_P2
2023/03/22 00:01:22;;;;;;;8.48;4.82;;;7.40;99.90;;;;;;8225627;28;20054;-79
2023/03/22 00:05:23;;;;;;;8.82;4.40;;;7.20;99.90;;;;;;8229860;28;20515;-78
2023/03/22 00:09:24;;;;;;;7.53;4.75;;;6.90;99.90;;;;;;8204196;28;20038;-77
2023/03/22 00:13:25;;;;;;;7.90;5.25;;;6.80;99.90;;;;;;8204423;28;20065;-78
2023/03/22 00:17:25;;;;;;;7.40;4.53;;;6.80;99.90;;;;;;8211106;28;20034;-78
2023/03/22 00:21:26;;;;;;;8.50;4.90;;;6.60;99.90;;;;;;8224428;28;20038;-78
2023/03/22 00:25:26;;;;;;;12.57;5.50;;;6.50;99.90;;;;;;8208388;28;20059;-77
2023/03/22 00:29:28;;;;;;;11.73;6.13;;;6.50;99.90;;;;;;8207880;28;20023;-78
2023/03/22 00:33:30;;;;;;;13.15;6.10;;;6.60;99.90;;;;;;8228858;28;20026;-78
2023/03/22 00:37:37;;;;;;;9.98;5.15;;;6.60;99.90;;;;;;8228676;28;20023;-77
2023/03/22 00:41:37;;;;;;;12.85;6.57;;;6.70;99.90;;;;;;8225128;28;20033;-78
2023/03/22 00:45:39;;;;;;;11.18;5.78;;;6.70;99.90;;;;;;8211357;28;20022;-78
2023/03/22 00:49:40;;;;;;;13.05;5.82;;;6.80;99.90;;;;;;8208568;28;20069;-78
2023/03/22 00:53:41;;;;;;;8.65;5.70;;;7.20;99.90;;;;;;8227920;28;20015;-78
2023/03/22 00:57:41;;;;;;;9.32;5.25;;;7.20;99.90;;;;;;8227404;28;20089;-78
2023/03/22 01:01:42;;;;;;;9.55;5.10;;;7.20;99.90;;;;;;8201763;28;20027;-78
2023/03/22 01:05:48;;;;;;;5.85;4.00;;;7.20;99.90;;;;;;8210627;28;20484;-77
2023/03/22 01:09:49;;;;;;;6.35;4.20;;;7.80;99.90;;;;;;8208275;28;20580;-78
2023/03/22 01:13:50;;;;;;;6.63;3.92;;;7.60;99.90;;;;;;8209764;28;20023;-78
2023/03/22 01:17:51;;;;;;;7.00;4.53;;;7.30;99.90;;;;;;8209089;28;20034;-79
2023/03/22 01:21:52;;;;;;;7.75;4.18;;;7.10;99.90;;;;;;8206791;28;20030;-78
2023/03/22 01:25:52;;;;;;;7.65;4.35;;;7.00;99.90;;;;;;8211510;28;20023;-79
2023/03/22 01:29:53;;;;;;;7.60;4.25;;;7.00;99.90;;;;;;8209591;28;20165;-79
2023/03/22 01:33:54;;;;;;;7.65;4.60;;;7.10;99.90;;;;;;8230907;28;20027;-78
2023/03/22 01:37:55;;;;;;;12.93;5.00;;;7.10;99.90;;;;;;8215969;28;20030;-79
2023/03/22 01:41:55;;;;;;;6.90;4.80;;;7.00;99.90;;;;;;8232774;28;20033;-78
2023/03/22 01:45:56;;;;;;;7.10;4.90;;;6.80;99.90;;;;;;8217175;28;20027;-78
2023/03/22 01:49:57;;;;;;;8.60;4.95;;;6.80;99.90;;;;;;8214967;28;20118;-79
2023/03/22 01:54:01;;;;;;;6.95;4.68;;;6.60;99.90;;;;;;8216358;28;20026;-78
2023/03/22 01:58:03;;;;;;;8.50;5.45;;;6.40;99.90;;;;;;8232268;28;20041;-79
2023/03/22 02:02:04;;;;;;;9.70;4.63;;;6.30;99.90;;;;;;8232429;28;20038;-78
2023/03/22 02:06:05;;;;;;;8.02;5.10;;;6.30;99.90;;;;;;8214946;28;20049;-78
2023/03/22 02:10:25;;;;;;;7.00;4.60;;;6.40;99.90;;;;;;8231843;28;20026;-77
2023/03/22 02:14:32;;;;;;;;;;;6.50;99.90;;;;;;8210622;28;20604;-78
2023/03/22 02:18:41;;;;;;;7.47;4.47;;;6.60;99.90;;;;;;8226337;28;19906;-79
2023/03/22 02:22:51;;;;;;;6.50;3.78;;;6.20;99.90;;;;;;8232806;28;20034;-78
2023/03/22 02:27:21;;;;;;;9.30;4.55;;;5.90;99.90;;;;;;8215388;28;20114;-78
2023/03/22 02:31:37;;;;;;;9.00;4.93;;;5.80;99.90;;;;;;8232795;28;20050;-78
2023/03/22 02:36:12;;;;;;;7.53;4.75;;;5.60;99.90;;;;;;8215349;28;20030;-78
2023/03/22 02:40:47;;;;;;;7.82;5.07;;;5.30;99.90;;;;;;8215014;28;20503;-79
2023/03/22 02:45:12;;;;;;;8.98;5.20;;;5.10;99.90;;;;;;8184724;28;20035;-78
2023/03/22 02:49:27;;;;;;;8.38;5.03;;;5.10;99.90;;;;;;8219031;28;20051;-78
2023/03/22 02:53:40;;;;;;;13.43;4.68;;;5.00;99.90;;;;;;8212986;28;20035;-77
2023/03/22 02:57:49;;;;;;;9.55;5.22;;;4.90;99.90;;;;;;8211522;28;20042;-78
2023/03/22 03:02:01;;;;;;;8.50;5.03;;;5.00;99.90;;;;;;8212350;28;20026;-78
2023/03/22 03:06:09;;;;;;;7.32;5.20;;;5.20;99.90;;;;;;8231323;28;20031;-78
2023/03/22 03:10:13;;;;;;;8.10;5.18;;;5.00;99.90;;;;;;8225733;28;20073;-78
2023/03/22 03:14:29;;;;;;;11.73;5.18;;;4.80;99.90;;;;;;8214240;28;20023;-78
2023/03/22 03:18:44;;;;;;;9.75;5.15;;;4.60;99.90;;;;;;8219846;28;20054;-78
2023/03/22 03:23:23;;;;;;;12.13;6.03;;;4.50;99.90;;;;;;8231717;28;20085;-79
2023/03/22 03:27:37;;;;;;;9.15;5.28;;;4.50;99.90;;;;;;8209650;28;20546;-78
2023/03/22 03:31:55;;;;;;;9.05;5.47;;;4.70;99.90;;;;;;8231339;28;20106;-78
2023/03/22 03:36:04;;;;;;;8.88;5.45;;;4.50;99.90;;;;;;8213633;28;20491;-78
2023/03/22 03:40:30;;;;;;;9.50;5.80;;;4.60;99.90;;;;;;8228767;28;20111;-79
2023/03/22 03:44:34;;;;;;;8.93;4.68;;;4.50;99.90;;;;;;8224630;28;20110;-78
2023/03/22 03:48:37;;;;;;;10.70;4.93;;;4.40;99.90;;;;;;8206923;28;20151;-79
2023/03/22 03:52:38;;;;;;;11.45;5.85;;;4.60;99.90;;;;;;8204936;28;20023;-77
2023/03/22 03:56:38;;;;;;;10.35;5.75;;;4.50;99.90;;;;;;8211985;28;20030;-78
2023/03/22 04:00:39;;;;;;;11.90;5.43;;;4.30;99.90;;;;;;8215654;28;20127;-79
2023/03/22 04:04:40;;;;;;;8.70;4.97;;;4.30;99.90;;;;;;8229895;28;20407;-78
2023/03/22 04:08:40;;;;;;;8.18;4.80;;;4.30;99.90;;;;;;8212672;28;20027;-77
2023/03/22 04:12:41;;;;;;;10.77;6.30;;;4.40;99.90;;;;;;8204002;28;20633;-77
2023/03/22 04:16:41;;;;;;;8.68;5.35;;;4.40;99.90;;;;;;8204188;28;20415;-77
2023/03/22 04:20:45;;;;;;;11.50;5.93;;;4.20;99.90;;;;;;8212246;28;20053;-78
2023/03/22 04:24:48;;;;;;;12.60;6.20;;;4.30;99.90;;;;;;8221772;28;20061;-78
2023/03/22 04:28:49;;;;;;;19.70;5.82;;;4.20;99.90;;;;;;8212145;28;20022;-77
2023/03/22 04:32:50;;;;;;;11.13;5.55;;;4.30;99.90;;;;;;8211222;28;20077;-77
2023/03/22 04:36:50;;;;;;;10.05;6.05;;;4.30;99.90;;;;;;8224426;28;20513;-77
2023/03/22 04:40:51;;;;;;;9.65;5.43;;;4.20;99.90;;;;;;8203544;28;20073;-77
2023/03/22 04:44:51;;;;;;;10.63;5.60;;;3.90;99.90;;;;;;8222621;28;20023;-78
2023/03/22 04:48:52;;;;;;;9.50;5.25;;;3.60;99.90;;;;;;8199045;28;20053;-78
2023/03/22 04:52:53;;;;;;;9.80;4.82;;;3.50;99.90;;;;;;8217601;28;20034;-78
2023/03/22 04:56:53;;;;;;;10.00;5.32;;;3.60;99.90;;;;;;8219154;28;20160;-78
2023/03/22 05:00:54;;;;;;;11.45;5.30;;;3.70;99.90;;;;;;8202793;28;20058;-79
2023/03/22 05:04:54;;;;;;;8.73;5.55;;;3.90;99.90;;;;;;8225592;28;20050;-77
2023/03/22 05:08:55;;;;;;;12.43;6.60;;;4.20;99.90;;;;;;8209965;28;20018;-78
2023/03/22 05:12:56;;;;;;;13.10;5.80;;;4.30;99.90;;;;;;8210531;28;20401;-78
2023/03/22 05:16:57;;;;;;;10.32;6.35;;;4.40;99.90;;;;;;8202592;28;20034;-77
2023/03/22 05:20:59;;;;;;;11.63;5.45;;;4.00;99.90;;;;;;8206994;28;20034;-78
2023/03/22 05:25:00;;;;;;;10.35;5.93;;;3.70;99.90;;;;;;8227746;28;20066;-78
2023/03/22 05:29:00;;;;;;;9.27;5.43;;;3.40;99.90;;;;;;8210095;28;20432;-79
2023/03/22 05:33:03;;;;;;;10.70;5.60;;;3.40;99.90;;;;;;8208077;28;20031;-78
2023/03/22 05:37:04;;;;;;;14.10;5.82;;;3.30;99.90;;;;;;8227586;28;20373;-79
2023/03/22 05:41:05;;;;;;;10.95;5.25;;;3.50;99.90;;;;;;8207159;28;20035;-78
2023/03/22 05:45:06;;;;;;;8.38;5.25;;;3.10;99.90;;;;;;8218077;28;20065;-78
2023/03/22 05:49:06;;;;;;;10.13;5.53;;;2.90;99.90;;;;;;8205714;28;20035;-78
2023/03/22 05:53:07;;;;;;;11.23;6.38;;;3.10;99.90;;;;;;8224551;28;20144;-77
2023/03/22 05:57:07;;;;;;;10.32;6.05;;;3.20;99.90;;;;;;8209230;28;20038;-77
2023/03/22 06:01:11;;;;;;;11.70;6.70;;;3.30;99.90;;;;;;8216685;28;20026;-77
2023/03/22 06:05:13;;;;;;;12.27;7.05;;;3.60;99.90;;;;;;8208290;28;20034;-78
2023/03/22 06:09:13;;;;;;;13.68;7.85;;;3.70;99.90;;;;;;8199297;28;20073;-79
2023/03/22 06:13:14;;;;;;;12.82;8.10;;;3.70;99.90;;;;;;8207645;28;20031;-78
2023/03/22 06:17:14;;;;;;;13.55;8.00;;;3.80;99.90;;;;;;8207150;28;20153;-78
2023/03/22 06:21:15;;;;;;;12.70;6.88;;;4.00;99.90;;;;;;8213818;28;20086;-79
2023/03/22 06:25:16;;;;;;;13.38;6.70;;;4.30;99.90;;;;;;8227795;28;20546;-78
2023/03/22 06:29:16;;;;;;;14.30;7.45;;;4.50;99.90;;;;;;8214738;28;20499;-78
2023/03/22 06:33:17;;;;;;;11.88;6.78;;;4.60;99.90;;;;;;8222496;28;20082;-79
2023/03/22 06:37:18;;;;;;;11.02;6.88;;;4.70;99.90;;;;;;8208460;28;20031;-78
2023/03/22 06:41:18;;;;;;;8.60;5.22;;;5.00;99.90;;;;;;8204817;28;20063;-78
2023/03/22 06:45:20;;;;;;;10.88;6.55;;;5.50;99.90;;;;;;8214803;28;20543;-78
2023/03/22 06:49:21;;;;;;;8.10;4.93;;;5.70;99.90;;;;;;8224573;28;20039;-78
2023/03/22 06:53:22;;;;;;;12.40;6.10;;;5.90;99.90;;;;;;8212573;28;20441;-78
2023/03/22 06:57:22;;;;;;;9.73;5.15;;;6.00;99.90;;;;;;8211141;28;20029;-78
2023/03/22 07:01:24;;;;;;;8.70;5.60;;;6.20;99.90;;;;;;8200917;28;20062;-78
2023/03/22 07:05:24;;;;;;;7.82;5.57;;;6.60;99.90;;;;;;8205967;28;20038;-78
2023/03/22 07:09:26;;;;;;;7.85;4.97;;;7.10;99.90;;;;;;8217003;28;20395;-78
2023/03/22 07:13:27;;;;;;;8.60;5.03;;;7.40;99.90;;;;;;8206145;28;20047;-78
2023/03/22 07:17:28;;;;;;;8.10;4.25;;;7.70;99.90;;;;;;8204545;28;20035;-78
2023/03/22 07:21:29;;;;;;;6.95;3.67;;;8.10;99.90;;;;;;8208174;28;20675;-78
2023/03/22 07:25:29;;;;;;;8.18;3.50;;;8.40;99.90;;;;;;8220854;28;20447;-78
2023/03/22 07:29:30;;;;;;;6.43;3.50;;;8.70;99.90;;;;;;8228768;28;20257;-78
2023/03/22 07:33:31;;;;;;;8.45;3.38;;;9.10;99.90;;;;;;8230014;28;20019;-78
2023/03/22 07:37:32;;;;;;;4.63;2.63;;;9.30;99.90;;;;;;8227551;28;20046;-78
2023/03/22 07:41:33;;;;;;;6.00;2.90;;;9.50;99.90;;;;;;8212194;28;20035;-78
2023/03/22 07:45:34;;;;;;;5.13;2.42;;;9.70;99.90;;;;;;8206835;28;20543;-78
2023/03/22 07:49:34;;;;;;;4.78;2.58;;;10.10;99.90;;;;;;8216804;28;20129;-77
2023/03/22 07:53:35;;;;;;;3.35;2.40;;;10.30;99.90;;;;;;8199069;28;20033;-78
2023/03/22 07:57:36;;;;;;;4.75;2.40;;;10.50;99.90;;;;;;8195199;28;20121;-79
2023/03/22 08:01:37;;;;;;;3.97;2.38;;;10.60;99.90;;;;;;8203662;28;20030;-78
2023/03/22 08:05:42;;;;;;;3.97;2.30;;;10.80;99.90;;;;;;8197402;28;20043;-79
2023/03/22 08:09:43;;;;;;;2.72;2.10;;;11.00;99.90;;;;;;8209632;28;20033;-78
2023/03/22 08:13:43;;;;;;;3.45;2.00;;;11.20;99.90;;;;;;8217520;28;20399;-79
2023/03/22 08:17:44;;;;;;;5.03;2.55;;;11.40;99.90;;;;;;8230207;28;20086;-79
2023/03/22 08:21:44;;;;;;;4.55;1.75;;;11.40;99.90;;;;;;8226167;28;20026;-78
2023/03/22 08:25:45;;;;;;;1.90;1.50;;;11.60;99.90;;;;;;8210977;28;20661;-78
2023/03/22 08:29:47;;;;;;;1.02;0.90;;;12.10;99.90;;;;;;8210994;28;20499;-79
2023/03/22 08:33:48;;;;;;;4.82;1.50;;;12.10;99.90;;;;;;8228108;28;20013;-78
2023/03/22 08:37:52;;;;;;;2.97;1.75;;;12.20;99.90;;;;;;8210801;28;20549;-79
2023/03/22 08:41:53;;;;;;;2.60;1.52;;;12.50;99.90;;;;;;8201548;28;20032;-78
2023/03/22 08:45:54;;;;;;;3.03;1.60;;;12.50;99.90;;;;;;8209870;28;20528;-78
2023/03/22 08:49:54;;;;;;;2.22;1.42;;;12.70;99.90;;;;;;8203374;28;20029;-78
2023/03/22 08:53:57;;;;;;;2.75;1.50;;;12.80;99.90;;;;;;8209495;28;20402;-79
2023/03/22 11:46:20;;;;;;;4.35;2.70;;;23.10;89.70;;;;;;8187886;28;20074;-76
2023/03/22 11:50:29;;;;;;;3.70;2.70;;;23.90;90.20;;;;;;8204896;28;20041;-76
2023/03/22 11:54:34;;;;;;;2.42;2.22;;;24.30;86.80;;;;;;8201866;28;20027;-76
2023/03/22 11:58:42;;;;;;;4.00;2.55;;;24.50;80.80;;;;;;8194685;28;20027;-77
2023/03/22 12:02:51;;;;;;;2.50;1.95;;;24.10;77.70;;;;;;8183206;28;20058;-76
2023/03/22 12:06:58;;;;;;;3.88;2.45;;;23.50;77.90;;;;;;8198984;28;20023;-76
2023/03/22 12:11:07;;;;;;;3.20;2.13;;;23.50;76.60;;;;;;8202895;28;20070;-77
2023/03/22 12:15:23;;;;;;;2.60;2.00;;;24.40;79.50;;;;;;8212132;28;20102;-77
2023/03/22 12:19:47;;;;;;;3.15;1.90;;;24.30;77.10;;;;;;8203440;28;20389;-76
2023/03/22 12:23:48;;;;;;;3.22;1.90;;;23.60;73.60;;;;;;8184515;28;20424;-76
2023/03/22 12:28:05;;;;;;;2.83;1.70;;;24.10;72.80;;;;;;8204971;28;20042;-76
2023/03/22 12:32:14;;;;;;;7.50;1.98;;;23.90;70.60;;;;;;8203757;28;20057;-77
2023/03/22 12:36:18;;;;;;;1.70;1.60;;;24.10;70.60;;;;;;8188729;28;20027;-77
2023/03/22 12:40:39;;;;;;;3.05;1.70;;;24.10;70.40;;;;;;8208949;28;20033;-77
2023/03/22 12:44:43;;;;;;;2.35;1.63;;;25.10;68.40;;;;;;8226043;28;20373;-77
2023/03/22 12:48:54;;;;;;;3.75;1.60;;;26.70;66.80;;;;;;8220621;28;20023;-77
2023/03/22 12:52:57;;;;;;;1.75;1.33;;;26.50;58.80;;;;;;8219733;28;20023;-76
2023/03/22 12:56:57;;;;;;;2.28;1.30;;;25.60;58.60;;;;;;8209341;28;20042;-77
2023/03/22 13:01:15;;;;;;;1.80;1.40;;;25.10;59.00;;;;;;8224692;28;20030;-77
2023/03/22 13:05:16;;;;;;;1.42;1.10;;;25.20;62.80;;;;;;8204427;28;20473;-77
2023/03/22 13:09:20;;;;;;;2.45;1.20;;;23.90;59.40;;;;;;8215960;28;20043;-77
2023/03/22 13:13:20;;;;;;;2.50;1.55;;;23.20;67.80;;;;;;8193895;28;20015;-77
2023/03/22 13:17:23;;;;;;;2.08;1.40;;;23.60;67.40;;;;;;8210596;28;20039;-77
2023/03/22 13:21:28;;;;;;;2.33;1.50;;;24.30;67.70;;;;;;8209471;28;20557;-76
2023/03/22 13:25:35;;;;;;;1.95;1.10;;;24.50;63.70;;;;;;8198665;28;20122;-77
2023/03/22 13:29:37;;;;;;;1.90;1.52;;;25.80;60.00;;;;;;8195222;28;20023;-78
2023/03/22 13:33:38;;;;;;;2.00;1.30;;;26.00;57.10;;;;;;8178858;28;20019;-77
2023/03/22 13:37:46;;;;;;;2.13;1.40;;;26.40;56.70;;;;;;8178867;28;20046;-77
2023/03/22 13:41:58;;;;;;;1.63;1.20;;;28.00;56.20;;;;;;8179299;28;20384;-78
2023/03/22 13:46:08;;;;;;;1.48;0.93;;;28.30;54.30;;;;;;8196000;28;20035;-77
2023/03/22 13:50:20;;;;;;;3.33;1.00;;;27.40;52.40;;;;;;8194308;28;20034;-77
2023/03/22 13:54:25;;;;;;;1.85;1.25;;;26.60;53.10;;;;;;8193839;28;20263;-77
2023/03/22 13:58:52;;;;;;;1.60;1.15;;;28.00;53.40;;;;;;8195439;28;20042;-78
2023/03/22 14:02:53;;;;;;;2.13;1.30;;;28.60;50.80;;;;;;8174679;28;20024;-77
2023/03/22 14:07:23;;;;;;;1.55;1.30;;;27.90;51.20;;;;;;8175620;28;20511;-77
2023/03/22 14:11:44;;;;;;;1.52;1.42;;;27.50;51.00;;;;;;8189714;28;20571;-77
2023/03/22 14:15:50;;;;;;;2.00;1.42;;;26.50;52.90;;;;;;8190286;28;20023;-77
2023/03/22 14:19:51;;;;;;;2.38;1.55;;;24.50;55.60;;;;;;8189072;28;20065;-77
2023/03/22 14:23:54;;;;;;;2.58;1.70;;;23.20;59.30;;;;;;8175073;28;20504;-77
2023/03/22 14:27:55;;;;;;;1.73;1.35;;;23.00;58.70;;;;;;8175651;28;20027;-77
2023/03/22 14:32:01;;;;;;;2.58;1.58;;;23.90;57.70;;;;;;8191755;28;20066;-77
2023/03/22 14:36:08;;;;;;;2.17;1.73;;;25.50;53.90;;;;;;8175594;28;20032;-78
2023/03/22 14:40:26;;;;;;;2.65;1.60;;;27.00;52.70;;;;;;8179634;28;20035;-78
2023/03/22 14:44:42;;;;;;;2.80;1.38;;;26.40;53.10;;;;;;8178059;28;20491;-79
2023/03/22 14:48:54;;;;;;;4.15;1.65;;;26.50;52.90;;;;;;8180723;28;20034;-78
2023/03/22 14:52:54;;;;;;;2.25;1.48;;;26.30;54.50;;;;;;8195828;28;20444;-78
2023/03/22 14:56:59;;;;;;;1.75;1.55;;;27.00;52.30;;;;;;8180111;28;20254;-78
2023/03/22 15:01:02;;;;;;;2.10;1.58;;;27.60;52.00;;;;;;8194489;28;20469;-78
2023/03/22 15:05:08;;;;;;;1.27;1.17;;;27.70;52.20;;;;;;8180154;28;20023;-79
2023/03/22 15:09:11;;;;;;;12.85;3.65;;;28.50;49.70;;;;;;8180093;28;20031;-79
2023/03/22 15:13:12;;;;;;;8.82;4.05;;;28.00;48.70;;;;;;8196050;28;20440;-78
2023/03/22 15:17:13;;;;;;;6.05;2.90;;;27.90;48.60;;;;;;8196243;28;20035;-77
2023/03/22 15:21:14;;;;;;;1.52;1.17;;;27.90;48.20;;;;;;8174574;28;20035;-77
2023/03/22 15:25:15;;;;;;;2.25;1.15;;;27.40;47.90;;;;;;8178606;28;20507;-78
2023/03/22 15:29:27;;;;;;;1.08;0.90;;;24.60;50.80;;;;;;8180459;28;20054;-78
2023/03/22 15:33:35;;;;;;;1.30;0.90;;;22.30;55.10;;;;;;8179824;28;20054;-78
2023/03/22 15:37:37;;;;;;;1.10;0.90;;;20.80;57.50;;;;;;8197660;28;20042;-78
2023/03/22 15:41:40;;;;;;;1.35;0.80;;;19.90;60.60;;;;;;8180275;28;20053;-77
2023/03/22 15:46:01;;;;;;;0.80;0.80;;;19.40;61.70;;;;;;8197547;28;20093;-78
2023/03/22 15:50:06;;;;;;;4.22;0.60;;;19.20;61.50;;;;;;8189528;28;21701;-77
2023/03/22 15:54:12;;;;;;;1.33;0.80;;;18.90;60.00;;;;;;8179013;28;20057;-78
2023/03/22 15:58:31;;;;;;;2.10;0.70;;;19.00;60.00;;;;;;8183155;28;20039;-78
2023/03/22 16:02:33;;;;;;;0.80;0.55;;;20.40;58.00;;;;;;8181661;28;20035;-78
2023/03/22 16:06:34;;;;;;;0.90;0.70;;;22.10;56.20;;;;;;8178729;28;20050;-79
2023/03/22 16:10:37;;;;;;;0.80;0.75;;;23.00;55.40;;;;;;8195646;28;20023;-78
2023/03/22 16:14:38;;;;;;;0.85;0.80;;;23.40;54.40;;;;;;8212471;28;20023;-78
2023/03/22 16:18:38;;;;;;;3.50;0.90;;;23.00;54.00;;;;;;8219913;28;20440;-79
2023/03/22 16:22:41;;;;;;;1.92;0.90;;;22.80;54.90;;;;;;8203355;28;20023;-78
2023/03/22 16:26:42;;;;;;;5.88;0.85;;;22.60;56.50;;;;;;8195654;28;20027;-78
2023/03/22 16:30:43;;;;;;;3.38;1.00;;;22.60;54.70;;;;;;8179469;28;20395;-78
2023/03/22 16:34:44;;;;;;;1.08;0.80;;;21.60;55.70;;;;;;8192626;28;20495;-78
2023/03/22 16:38:45;;;;;;;1.63;0.77;;;19.60;60.50;;;;;;8196236;28;20026;-78
2023/03/22 16:42:46;;;;;;;1.15;0.90;;;18.40;63.70;;;;;;8204168;28;20393;-78
2023/03/22 16:46:47;;;;;;;1.85;0.88;;;17.60;66.20;;;;;;8178646;28;20038;-77
2023/03/22 16:50:48;;;;;;;1.15;0.80;;;17.00;68.90;;;;;;8199997;28;20026;-78
2023/03/22 16:54:51;;;;;;;2.13;0.90;;;16.50;70.20;;;;;;8177557;28;20106;-79
2023/03/22 16:58:52;;;;;;;1.05;0.82;;;16.10;72.00;;;;;;8181381;28;20082;-79
2023/03/22 17:03:00;;;;;;;1.40;0.98;;;15.70;74.30;;;;;;8189015;28;20361;-79
2023/03/22 17:07:01;;;;;;;1.65;1.10;;;15.40;75.30;;;;;;8214484;28;20395;-79
2023/03/22 17:11:01;;;;;;;1.85;0.90;;;15.10;77.00;;;;;;8208438;28;20019;-79
2023/03/22 17:15:14;;;;;;;1.10;1.00;;;14.90;77.70;;;;;;8204388;28;20051;-78
2023/03/22 17:19:14;;;;;;;1.15;1.00;;;14.50;81.50;;;;;;8179491;28;20031;-78
2023/03/22 17:23:15;;;;;;;4.25;1.13;;;14.20;82.00;;;;;;8196395;28;20042;-79
2023/03/22 17:27:15;;;;;;;1.42;0.82;;;14.00;86.90;;;;;;8194146;28;20031;-79
2023/03/22 17:31:16;;;;;;;0.98;0.80;;;13.70;83.70;;;;;;8195386;28;20031;-78
2023/03/22 17:35:20;;;;;;;1.20;0.82;;;13.40;83.60;;;;;;8177653;28;20019;-78
2023/03/22 17:39:21;;;;;;;3.08;1.00;;;13.30;87.20;;;;;;8178009;28;20033;-78
2023/03/22 17:43:21;;;;;;;5.57;0.90;;;13.30;83.90;;;;;;8176777;28;20090;-79
2023/03/22 17:47:22;;;;;;;2.47;0.85;;;13.00;86.70;;;;;;8178533;28;20027;-78
2023/03/22 17:51:23;;;;;;;2.25;1.55;;;12.90;88.30;;;;;;8193073;28;20026;-78
2023/03/22 17:55:26;;;;;;;2.50;1.20;;;12.70;90.20;;;;;;8193338;28;20063;-78
2023/03/22 17:59:27;;;;;;;2.53;1.00;;;12.40;90.90;;;;;;8177679;28;20114;-78
2023/03/22 18:03:27;;;;;;;2.20;1.20;;;12.10;90.80;;;;;;8190134;28;20027;-78
2023/03/22 18:07:28;;;;;;;2.55;1.20;;;11.90;91.50;;;;;;8193890;28;20452;-78
2023/03/22 18:11:28;;;;;;;3.28;1.33;;;11.70;93.50;;;;;;8194079;28;20042;-78
2023/03/22 18:15:29;;;;;;;2.28;1.00;;;11.40;94.60;;;;;;8199180;28;20079;-77
2023/03/22 18:19:31;;;;;;;2.15;1.35;;;11.10;95.80;;;;;;8184160;28;20030;-77
2023/03/22 18:23:32;;;;;;;1.75;1.30;;;11.00;96.30;;;;;;8184486;28;20035;-78
2023/03/22 18:27:32;;;;;;;2.50;1.40;;;10.80;97.60;;;;;;8183439;28;20067;-78
2023/03/22 18:31:33;;;;;;;3.22;1.27;;;10.70;99.00;;;;;;8184679;28;20051;-77
2023/03/22 18:35:33;;;;;;;1.17;1.02;;;10.20;99.50;;;;;;8194801;28;20031;-76
2023/03/22 18:39:35;;;;;;;2.10;1.15;;;9.90;99.90;;;;;;8195842;28;20035;-77
2023/03/22 18:43:40;;;;;;;1.95;1.08;;;9.60;99.90;;;;;;8181504;28;20038;-76
2023/03/22 18:47:41;;;;;;;1.13;1.00;;;9.30;99.90;;;;;;8176051;28;20038;-76
2023/03/22 18:51:42;;;;;;;1.85;1.30;;;9.20;99.90;;;;;;8176932;28;20590;-77
2023/03/22 18:55:42;;;;;;;3.22;1.50;;;9.00;99.90;;;;;;8193288;28;20055;-77
2023/03/22 18:59:43;;;;;;;6.68;1.50;;;8.80;99.90;;;;;;8195347;28;20035;-76
2023/03/22 19:03:43;;;;;;;1.75;1.13;;;8.50;99.90;;;;;;8176239;28;20118;-76
2023/03/22 19:07:44;;;;;;;4.10;1.40;;;8.50;99.90;;;;;;8176243;28;20488;-76
2023/03/22 19:11:45;;;;;;;7.60;1.85;;;8.40;99.90;;;;;;8192024;28;20034;-76
2023/03/22 19:15:46;;;;;;;5.00;2.05;;;8.30;99.90;;;;;;8175425;28;20118;-76
2023/03/22 19:19:46;;;;;;;4.80;2.85;;;8.40;99.90;;;;;;8175060;28;20031;-75
2023/03/22 19:23:47;;;;;;;4.55;2.47;;;8.40;99.90;;;;;;8193715;28;20032;-76
2023/03/22 19:27:49;;;;;;;3.67;2.00;;;8.20;99.90;;;;;;8174951;28;20031;-77
2023/03/22 19:31:49;;;;;;;5.22;3.03;;;8.00;99.90;;;;;;8193948;28;20027;-76
2023/03/22 19:35:51;;;;;;;9.02;4.15;;;7.80;99.90;;;;;;8193666;28;20464;-76
2023/03/22 19:39:52;;;;;;;7.90;4.15;;;7.40;99.90;;;;;;8176445;28;20058;-75
2023/03/22 19:43:52;;;;;;;7.40;3.55;;;7.60;99.90;;;;;;8193395;28;20031;-76
2023/03/22 19:47:53;;;;;;;8.07;2.63;;;7.20;99.90;;;;;;8173772;28;20039;-76
2023/03/22 19:51:54;;;;;;;4.65;2.50;;;6.70;99.90;;;;;;8191679;28;20526;-76
2023/03/22 19:55:55;;;;;;;5.20;2.83;;;6.70;99.90;;;;;;8192819;28;20034;-76
2023/03/22 19:59:56;;;;;;;3.03;2.00;;;6.50;99.90;;;;;;8176288;28;20058;-76
2023/03/22 20:03:56;;;;;;;3.65;2.40;;;6.60;99.90;;;;;;8192065;28;20019;-76
2023/03/22 20:07:57;;;;;;;7.22;3.03;;;6.70;99.90;;;;;;8172217;28;20031;-76
2023/03/22 20:11:58;;;;;;;5.13;3.38;;;6.70;99.90;;;;;;8187029;28;20061;-76
2023/03/22 20:15:58;;;;;;;7.22;4.43;;;6.80;99.90;;;;;;8174915;28;20407;-76
2023/03/22 20:19:59;;;;;;;10.60;4.78;;;6.90;99.90;;;;;;8189734;28;20114;-76
2023/03/22 20:24:01;;;;;;;6.80;3.63;;;6.60;99.90;;;;;;8169660;28;20437;-74
2023/03/22 20:28:02;;;;;;;8.20;3.47;;;6.50;99.90;;;;;;8180179;28;20057;-74
2023/03/22 20:32:03;;;;;;;5.32;2.72;;;6.60;99.90;;;;;;8168366;28;20027;-75
2023/03/22 20:36:04;;;;;;;5.70;3.25;;;6.50;99.90;;;;;;8159194;28;21378;-75
2023/03/22 20:40:06;;;;;;;9.23;3.58;;;6.40;99.90;;;;;;8179450;28;20499;-76
2023/03/22 20:44:08;;;;;;;6.65;4.18;;;6.30;99.90;;;;;;8185910;28;20034;-74
2023/03/22 20:48:08;;;;;;;10.55;4.63;;;6.20;99.90;;;;;;8168956;28;20035;-76
2023/03/22 20:52:09;;;;;;;9.98;4.18;;;6.00;99.90;;;;;;8173764;28;20020;-75
2023/03/22 20:56:10;;;;;;;15.25;5.15;;;6.00;99.90;;;;;;8189961;28;20027;-75
2023/03/22 21:00:12;;;;;;;11.85;5.05;;;6.00;99.90;;;;;;8173499;28;20472;-74
2023/03/22 21:04:13;;;;;;;10.20;5.03;;;5.90;99.90;;;;;;8174570;28;20035;-75
2023/03/22 21:08:13;;;;;;;9.60;5.28;;;5.90;99.90;;;;;;8176577;28;20034;-76
2023/03/22 21:12:14;;;;;;;9.23;4.47;;;5.90;99.90;;;;;;8176889;28;20074;-75
2023/03/22 21:16:16;;;;;;;10.65;4.63;;;5.80;99.90;;;;;;8193818;28;20022;-76
2023/03/22 21:20:17;;;;;;;9.20;4.82;;;5.80;99.90;;;;;;8177175;28;20123;-75
2023/03/22 21:24:18;;;;;;;7.50;4.07;;;5.90;99.90;;;;;;8193646;28;20039;-76
2023/03/22 21:28:25;;;;;;;8.40;4.35;;;6.00;99.90;;;;;;8194208;28;20032;-75
2023/03/22 21:32:25;;;;;;;8.63;4.13;;;5.90;99.90;;;;;;8177381;28;20089;-76
2023/03/22 21:36:28;;;;;;;7.38;4.22;;;6.00;99.90;;;;;;8176947;28;20027;-76
2023/03/22 21:40:29;;;;;;;8.52;4.30;;;6.00;99.90;;;;;;8194470;28;20102;-75
2023/03/22 21:44:31;;;;;;;9.43;4.53;;;5.80;99.90;;;;;;8176909;28;20507;-76
2023/03/22 21:48:32;;;;;;;8.20;4.68;;;5.70;99.90;;;;;;8178673;28;20031;-75
2023/03/22 21:52:33;;;;;;;10.55;5.57;;;5.70;99.90;;;;;;8196196;28;20042;-76
2023/03/22 21:56:35;;;;;;;8.80;4.00;;;5.70;99.90;;;;;;8182996;28;20126;-75
2023/03/22 22:00:38;;;;;;;6.70;3.30;;;5.80;99.90;;;;;;8200396;28;20400;-76
2023/03/22 22:04:38;;;;;;;7.63;3.83;;;5.80;99.90;;;;;;8182742;28;20019;-79
2023/03/22 22:08:39;;;;;;;5.88;3.30;;;5.70;99.90;;;;;;8199074;28;20078;-79
2023/03/22 22:12:40;;;;;;;6.35;4.03;;;5.60;99.90;;;;;;8199435;28;20055;-76
2023/03/22 22:16:40;;;;;;;8.18;4.10;;;5.50;99.90;;;;;;8182032;28;20023;-76
2023/03/22 22:20:42;;;;;;;8.13;4.03;;;5.30;99.90;;;;;;8182536;28;20286;-76
2023/03/22 22:24:43;;;;;;;8.43;4.13;;;5.20;99.90;;;;;;8199571;28;20024;-76
2023/03/22 22:28:44;;;;;;;7.75;4.60;;;5.10;99.90;;;;;;8182312;28;20027;-74
2023/03/22 22:32:45;;;;;;;11.40;5.30;;;5.10;99.90;;;;;;8199066;28;20016;-77
2023/03/22 22:36:46;;;;;;;14.00;6.03;;;5.00;99.90;;;;;;8198848;28;20023;-74
2023/03/22 22:40:47;;;;;;;24.42;9.30;;;5.00;99.90;;;;;;8199135;28;20097;-75
2023/03/22 22:44:47;;;;;;;23.00;8.60;;;5.10;99.90;;;;;;8181755;28;20034;-76
2023/03/22 22:48:48;;;;;;;15.77;6.22;;;5.20;99.90;;;;;;8199235;28;20023;-77
2023/03/22 22:52:49;;;;;;;13.65;5.40;;;5.30;99.90;;;;;;8181747;28;20019;-75
2023/03/22 22:56:49;;;;;;;10.10;5.07;;;5.40;99.90;;;;;;8199478;28;20646;-77
2023/03/22 23:00:50;;;;;;;8.85;3.88;;;5.30;99.90;;;;;;8185207;28;20034;-77
2023/03/22 23:04:51;;;;;;;8.23;3.63;;;5.30;99.90;;;;;;8204143;28;20639;-77
2023/03/22 23:08:54;;;;;;;8.13;4.15;;;5.30;99.90;;;;;;8194295;28;20063;-79
2023/03/22 23:12:54;;;;;;;13.43;6.40;;;5.10;99.90;;;;;;8203214;28;20024;-77
2023/03/22 23:16:59;;;;;;;21.98;9.48;;;5.00;99.90;;;;;;8202751;28;20066;-77
2023/03/22 23:20:59;;;;;;;16.92;7.20;;;5.00;99.90;;;;;;8202335;28;20039;-77
2023/03/22 23:25:00;;;;;;;12.32;5.95;;;5.00;99.90;;;;;;8185291;28;20027;-81
2023/03/22 23:29:01;;;;;;;7.35;4.35;;;5.00;99.90;;;;;;8208550;28;20031;-76
2023/03/22 23:33:01;;;;;;;8.27;4.03;;;5.00;99.90;;;;;;8186049;28;20031;-77
2023/03/22 23:37:09;;;;;;;9.68;4.22;;;5.00;99.90;;;;;;8200462;28;20066;-77
2023/03/22 23:41:10;;;;;;;11.82;4.78;;;5.00;99.90;;;;;;8201837;28;20650;-77
2023/03/22 23:45:10;;;;;;;5.75;3.67;;;4.90;99.90;;;;;;8185087;28;20062;-77
2023/03/22 23:49:12;;;;;;;5.53;3.05;;;5.00;99.90;;;;;;8183906;28;20125;-76
2023/03/22 23:53:12;;;;;;;5.75;3.00;;;5.10;99.90;;;;;;8183997;28;20065;-76
2023/03/22 23:57:13;;;;;;;7.22;3.50;;;5.30;99.90;;;;;;8183850;28;20047;-78
